Time;durP1;ratioP1;P1;durP2;ratioP2;P2;SDS_P1;SDS_P2;PMS_P1;PMS_P2;Temp;Humidity;BMP_temperature;BMP_pressure;BME280_temperature;BME280_humidity;BME280_pressure;Samples;Min_cycle;Max_cycle;Signal;HPM_P1;HPM_P2
2022/01/16 00:00:23;;;;;;;8.43;2.30;;;;;;;;;;4996490;28;20030;-23
2022/01/16 00:05:25;;;;;;;10.65;4.00;;;;;;;;;;4996547;28;20058;-22
2022/01/16 00:07:59;;;;;;;9.90;3.00;;;;;;;;;;4996334;28;20454;-22
2022/01/16 00:10:26;;;;;;;5.95;2.83;;;;;;;;;;4996342;28;20037;-23
2022/01/16 00:12:54;;;;;;;8.82;2.50;;;;;;;;;;4995664;28;20031;-23
2022/01/16 00:15:22;;;;;;;6.47;2.60;;;;;;;;;;4995299;28;20049;-22
2022/01/16 00:18:10;;;;;;;12.40;2.97;;;;;;;;;;4996174;28;20022;-23
2022/01/16 00:20:36;;;;;;;12.57;3.55;;;;;;;;;;4996157;28;20366;-22
2022/01/16 00:23:09;;;;;;;11.88;2.85;;;;;;;;;;4995968;28;20034;-22
2022/01/16 00:25:35;;;;;;;5.82;2.83;;;;;;;;;;4995984;28;20057;-22
2022/01/16 00:28:01;;;;;;;6.07;2.85;;;;;;;;;;4996222;28;20458;-22
2022/01/16 00:30:28;;;;;;;9.55;2.97;;;;;;;;;;4995915;28;20040;-22
2022/01/16 00:32:59;;;;;;;4.45;2.30;;;;;;;;;;4995968;28;20046;-22
2022/01/16 00:35:25;;;;;;;7.55;2.50;;;;;;;;;;4996505;28;20358;-22
2022/01/16 00:37:52;;;;;;;5.28;2.28;;;;;;;;;;4996009;28;20064;-23
2022/01/16 00:40:18;;;;;;;6.10;2.05;;;;;;;;;;4996045;28;20042;-22
2022/01/16 00:42:45;;;;;;;6.57;2.53;;;;;;;;;;4996005;28;20105;-22
2022/01/16 00:45:11;;;;;;;5.40;2.25;;;;;;;;;;4996374;28;20031;-22
2022/01/16 00:47:37;;;;;;;11.43;2.85;;;;;;;;;;4995887;28;20018;-23
2022/01/16 00:50:04;;;;;;;5.05;2.35;;;;;;;;;;4995566;28;20018;-22
2022/01/16 00:52:30;;;;;;;15.00;5.72;;;;;;;;;;4995492;28;20058;-23
2022/01/16 00:55:02;;;;;;;4.10;2.58;;;;;;;;;;4995805;28;20049;-22
2022/01/16 00:57:29;;;;;;;8.48;2.42;;;;;;;;;;4993938;28;20469;-22
2022/01/16 00:59:55;;;;;;;4.13;2.38;;;;;;;;;;4995408;28;20027;-22
2022/01/16 01:02:23;;;;;;;11.73;3.35;;;;;;;;;;4995316;28;20110;-22
2022/01/16 01:04:49;;;;;;;3.95;2.92;;;;;;;;;;4995625;28;20414;-22
2022/01/16 01:07:16;;;;;;;4.20;2.22;;;;;;;;;;4995038;28;20042;-22
2022/01/16 01:09:42;;;;;;;6.07;3.42;;;;;;;;;;4995816;28;20035;-22
2022/01/16 01:12:10;;;;;;;5.55;2.67;;;;;;;;;;4995288;28;20412;-22
2022/01/16 01:14:42;;;;;;;6.47;2.83;;;;;;;;;;4995228;28;20031;-22
2022/01/16 01:17:13;;;;;;;5.40;3.45;;;;;;;;;;4995512;28;20038;-23
2022/01/16 01:19:39;;;;;;;8.07;2.10;;;;;;;;;;4995490;28;20034;-22
2022/01/16 01:22:06;;;;;;;3.83;2.30;;;;;;;;;;4995368;28;21987;-22
2022/01/16 01:24:35;;;;;;;9.70;2.70;;;;;;;;;;4995026;28;20045;-23
2022/01/16 01:29:34;;;;;;;5.22;2.90;;;;;;;;;;4995101;28;20060;-22
2022/01/16 01:32:01;;;;;;;9.70;2.15;;;;;;;;;;4995151;28;20337;-22
2022/01/16 01:34:27;;;;;;;6.82;2.60;;;;;;;;;;4995039;28;20034;-22
2022/01/16 01:36:54;;;;;;;4.43;2.22;;;;;;;;;;4994961;28;20041;-22
2022/01/16 01:39:21;;;;;;;8.40;2.85;;;;;;;;;;4994895;28;20035;-23
2022/01/16 01:41:50;;;;;;;5.22;2.42;;;;;;;;;;4994856;28;20109;-22
2022/01/16 01:52:30;;;;;;;5.50;2.83;;;;;;;;;;4994840;28;20513;-22
2022/01/16 01:54:56;;;;;;;7.40;3.03;;;;;;;;;;4993960;28;20391;-22
2022/01/16 01:57:23;;;;;;;5.30;2.35;;;;;;;;;;4995291;28;20034;-22
2022/01/16 01:59:49;;;;;;;9.10;3.80;;;;;;;;;;4995068;28;20045;-22
2022/01/16 02:02:15;;;;;;;5.25;2.80;;;;;;;;;;4994719;28;20022;-22
2022/01/16 02:04:41;;;;;;;3.67;2.58;;;;;;;;;;4994896;28;20026;-22
2022/01/16 02:07:08;;;;;;;5.88;2.97;;;;;;;;;;4994427;28;20035;-22
2022/01/16 02:09:34;;;;;;;3.70;2.00;;;;;;;;;;4998499;28;20476;-21
2022/01/16 02:12:00;;;;;;;6.72;3.33;;;;;;;;;;4998982;28;20026;-22
2022/01/16 02:14:35;;;;;;;6.13;2.55;;;;;;;;;;4998749;28;20370;-22
2022/01/16 02:28:19;;;;;;;5.22;2.75;;;;;;;;;;4998278;28;20045;-22
2022/01/16 02:34:29;;;;;;;8.13;2.53;;;;;;;;;;4998054;28;20049;-23
2022/01/16 02:36:15;;;;;;;3.50;2.03;;;;;;;;;;4997980;28;20485;-22
2022/01/16 02:38:41;;;;;;;8.15;2.33;;;;;;;;;;4998049;28;20121;-22
2022/01/16 02:41:07;;;;;;;3.72;2.40;;;;;;;;;;4998246;28;20037;-22
2022/01/16 02:43:35;;;;;;;3.70;2.05;;;;;;;;;;4998092;28;20189;-23
2022/01/16 02:46:36;;;;;;;3.15;2.22;;;;;;;;;;4998288;28;20331;-23
2022/01/16 02:48:55;;;;;;;4.40;2.38;;;;;;;;;;4997713;28;20154;-22
2022/01/16 02:51:23;;;;;;;3.58;2.15;;;;;;;;;;4997860;28;20158;-22
2022/01/16 02:53:50;;;;;;;4.13;2.30;;;;;;;;;;4997684;28;20058;-23
2022/01/16 02:56:18;;;;;;;4.35;2.40;;;;;;;;;;4998010;28;20052;-23
2022/01/16 02:58:44;;;;;;;2.58;1.90;;;;;;;;;;4997672;28;20034;-22
2022/01/16 03:01:11;;;;;;;4.40;2.20;;;;;;;;;;4997865;28;20041;-23
2022/01/16 03:03:37;;;;;;;4.20;2.20;;;;;;;;;;4997749;28;20352;-23
2022/01/16 03:06:04;;;;;;;5.70;2.20;;;;;;;;;;4997582;28;20421;-22
2022/01/16 03:08:30;;;;;;;2.97;2.08;;;;;;;;;;4997835;28;20058;-22
2022/01/16 03:11:13;;;;;;;5.75;2.30;;;;;;;;;;4997387;28;20034;-22
2022/01/16 03:13:47;;;;;;;4.63;2.08;;;;;;;;;;4997650;28;20041;-23
2022/01/16 03:16:13;;;;;;;3.67;2.30;;;;;;;;;;4997404;28;20105;-23
2022/01/16 03:24:09;;;;;;;2.58;1.70;;;;;;;;;;4997223;28;20096;-22
2022/01/16 03:26:35;;;;;;;6.85;2.33;;;;;;;;;;4997340;28;20026;-22
2022/01/16 03:29:01;;;;;;;3.28;1.67;;;;;;;;;;4997130;28;20054;-22
2022/01/16 03:31:28;;;;;;;3.17;2.00;;;;;;;;;;4997055;28;20067;-24
2022/01/16 03:33:54;;;;;;;4.38;2.13;;;;;;;;;;4997279;28;20034;-21
2022/01/16 03:36:22;;;;;;;4.55;2.10;;;;;;;;;;4996938;28;20049;-22
2022/01/16 03:38:48;;;;;;;5.15;2.20;;;;;;;;;;4996914;28;20030;-22
2022/01/16 03:41:14;;;;;;;4.18;1.83;;;;;;;;;;4995940;28;20077;-23
2022/01/16 03:43:40;;;;;;;3.83;2.20;;;;;;;;;;4996743;28;20038;-21
2022/01/16 03:46:06;;;;;;;5.45;1.90;;;;;;;;;;4996901;28;20034;-21
2022/01/16 03:48:32;;;;;;;4.80;2.47;;;;;;;;;;4996711;28;20097;-21
2022/01/16 03:50:58;;;;;;;4.93;2.22;;;;;;;;;;4996648;28;20112;-21
2022/01/16 03:53:25;;;;;;;4.30;2.17;;;;;;;;;;4996831;28;20038;-22
2022/01/16 03:55:51;;;;;;;6.85;2.10;;;;;;;;;;4996645;28;20125;-21
2022/01/16 03:58:17;;;;;;;3.45;2.00;;;;;;;;;;4996539;28;20018;-25
2022/01/16 04:00:44;;;;;;;3.50;2.35;;;;;;;;;;4996418;28;20058;-22
2022/01/16 04:03:13;;;;;;;4.15;2.53;;;;;;;;;;4996608;28;20030;-22
2022/01/16 04:05:40;;;;;;;2.47;2.28;;;;;;;;;;4996331;28;20374;-25
2022/01/16 04:08:06;;;;;;;4.45;2.65;;;;;;;;;;4996631;28;20037;-21
2022/01/16 04:10:32;;;;;;;3.75;2.10;;;;;;;;;;4996360;28;20022;-21
2022/01/16 04:12:58;;;;;;;5.18;2.50;;;;;;;;;;4996211;28;20089;-22
2022/01/16 04:15:34;;;;;;;3.60;2.38;;;;;;;;;;4996218;28;20027;-21
2022/01/16 04:18:01;;;;;;;3.58;1.83;;;;;;;;;;4996190;28;20113;-22
2022/01/16 04:20:27;;;;;;;6.38;2.40;;;;;;;;;;4995216;28;20034;-22
2022/01/16 04:22:53;;;;;;;4.18;2.53;;;;;;;;;;4995992;28;20026;-21
2022/01/16 04:25:19;;;;;;;6.28;2.08;;;;;;;;;;4996424;28;20026;-21
2022/01/16 04:27:46;;;;;;;2.60;2.25;;;;;;;;;;4996007;28;20080;-22
2022/01/16 04:30:12;;;;;;;4.63;2.92;;;;;;;;;;4996201;28;20046;-21
2022/01/16 04:32:38;;;;;;;5.68;2.70;;;;;;;;;;4995152;28;20050;-21
2022/01/16 04:35:05;;;;;;;3.28;2.53;;;;;;;;;;4995849;28;20508;-22
2022/01/16 04:37:31;;;;;;;4.53;2.17;;;;;;;;;;4996053;28;20092;-21
2022/01/16 04:40:02;;;;;;;3.97;2.25;;;;;;;;;;4995734;28;20026;-22
2022/01/16 04:45:13;;;;;;;3.75;2.90;;;;;;;;;;4995614;28;19916;-22
2022/01/16 04:47:40;;;;;;;4.18;2.67;;;;;;;;;;4995896;28;20114;-22
2022/01/16 04:50:07;;;;;;;4.07;2.28;;;;;;;;;;4995632;28;20410;-22
2022/01/16 04:52:33;;;;;;;3.38;2.95;;;;;;;;;;4995781;28;20031;-24
2022/01/16 04:54:59;;;;;;;8.98;4.25;;;;;;;;;;4995602;28;20034;-22
2022/01/16 04:57:25;;;;;;;4.03;2.47;;;;;;;;;;4995725;28;20038;-21
2022/01/16 04:59:51;;;;;;;3.10;2.40;;;;;;;;;;4995647;28;20065;-22
2022/01/16 05:02:18;;;;;;;4.22;2.30;;;;;;;;;;4995618;28;20026;-22
2022/01/16 05:04:45;;;;;;;2.70;2.47;;;;;;;;;;4995176;28;20026;-21
2022/01/16 05:07:11;;;;;;;2.08;1.65;;;;;;;;;;4993986;28;20041;-23
2022/01/16 05:09:38;;;;;;;3.10;2.65;;;;;;;;;;4995303;28;20036;-22
2022/01/16 05:12:10;;;;;;;2.45;1.80;;;;;;;;;;4995626;28;20026;-22
2022/01/16 05:17:21;;;;;;;4.20;2.88;;;;;;;;;;4995539;28;20124;-21
2022/01/16 05:19:47;;;;;;;6.63;2.33;;;;;;;;;;4995353;28;20114;-23
2022/01/16 05:22:13;;;;;;;4.22;2.45;;;;;;;;;;4994945;28;20030;-23
2022/01/16 05:24:39;;;;;;;4.68;2.50;;;;;;;;;;4995028;28;20105;-22
2022/01/16 05:27:07;;;;;;;5.78;2.63;;;;;;;;;;4995003;28;20109;-22
2022/01/16 05:29:33;;;;;;;3.92;2.35;;;;;;;;;;4995346;28;20026;-22
2022/01/16 05:31:59;;;;;;;5.70;3.33;;;;;;;;;;4994843;28;20519;-21
2022/01/16 05:34:26;;;;;;;3.60;2.08;;;;;;;;;;4994794;28;20038;-22
2022/01/16 05:36:52;;;;;;;5.40;2.33;;;;;;;;;;4995084;28;20141;-21
2022/01/16 05:39:19;;;;;;;3.85;2.65;;;;;;;;;;4994982;28;20389;-21
2022/01/16 05:41:45;;;;;;;6.90;2.70;;;;;;;;;;4995096;28;20046;-21
2022/01/16 05:44:11;;;;;;;4.22;2.33;;;;;;;;;;4998487;28;20034;-22
2022/01/16 05:46:37;;;;;;;2.47;2.00;;;;;;;;;;4998852;28;20026;-22
2022/01/16 05:49:04;;;;;;;5.78;2.50;;;;;;;;;;4999215;28;20026;-22
2022/01/16 05:51:30;;;;;;;4.43;2.70;;;;;;;;;;4997875;28;20065;-22
2022/01/16 05:53:57;;;;;;;3.90;2.80;;;;;;;;;;4998769;28;20042;-22
2022/01/16 05:56:23;;;;;;;4.40;2.58;;;;;;;;;;4998699;28;20058;-22
2022/01/16 05:58:49;;;;;;;4.25;3.50;;;;;;;;;;4999095;28;20045;-22
2022/01/16 06:01:15;;;;;;;4.97;2.40;;;;;;;;;;4998588;28;20033;-22
2022/01/16 06:03:41;;;;;;;7.82;3.17;;;;;;;;;;4998519;28;20369;-22
2022/01/16 06:06:09;;;;;;;6.65;2.92;;;;;;;;;;4998252;28;20049;-21
2022/01/16 06:08:38;;;;;;;3.17;2.85;;;;;;;;;;4998654;28;20034;-23
2022/01/16 06:11:04;;;;;;;8.18;2.67;;;;;;;;;;4998349;28;20069;-22
2022/01/16 06:13:30;;;;;;;11.20;2.67;;;;;;;;;;4998308;28;20531;-22
2022/01/16 06:15:57;;;;;;;5.85;2.25;;;;;;;;;;4998332;28;20080;-23
2022/01/16 06:18:23;;;;;;;3.38;2.85;;;;;;;;;;4998320;28;20040;-24
2022/01/16 06:20:50;;;;;;;8.85;3.13;;;;;;;;;;4998388;28;20042;-25
2022/01/16 06:23:16;;;;;;;5.57;2.78;;;;;;;;;;4998137;28;20484;-23
2022/01/16 06:25:44;;;;;;;5.72;2.72;;;;;;;;;;4998318;28;20421;-22
2022/01/16 06:28:10;;;;;;;3.30;2.83;;;;;;;;;;4998403;28;20106;-22
2022/01/16 06:30:36;;;;;;;3.50;2.40;;;;;;;;;;4998131;28;20027;-22
2022/01/16 06:33:05;;;;;;;8.77;2.55;;;;;;;;;;4998055;28;20022;-22
2022/01/16 06:35:31;;;;;;;6.70;3.75;;;;;;;;;;4998728;28;20038;-22
2022/01/16 06:37:57;;;;;;;5.45;3.17;;;;;;;;;;4997934;28;20030;-23
2022/01/16 06:40:23;;;;;;;3.85;2.60;;;;;;;;;;4997802;28;20113;-22
2022/01/16 06:42:50;;;;;;;5.13;2.63;;;;;;;;;;4997804;28;20399;-22
2022/01/16 06:45:16;;;;;;;7.40;2.92;;;;;;;;;;4997822;28;20026;-22
2022/01/16 06:47:42;;;;;;;5.47;3.17;;;;;;;;;;4997757;28;20457;-22
2022/01/16 06:50:09;;;;;;;6.93;2.58;;;;;;;;;;4997716;28;20519;-22
2022/01/16 06:52:35;;;;;;;8.52;2.38;;;;;;;;;;4997809;28;20463;-22
2022/01/16 06:55:01;;;;;;;9.70;3.70;;;;;;;;;;4997276;28;20030;-23
2022/01/16 06:57:27;;;;;;;5.38;2.75;;;;;;;;;;4997608;28;20037;-23
2022/01/16 06:59:54;;;;;;;3.30;2.42;;;;;;;;;;4997649;28;20160;-22
2022/01/16 07:02:22;;;;;;;4.85;2.70;;;;;;;;;;4997771;28;20077;-23
2022/01/16 07:04:48;;;;;;;4.93;2.50;;;;;;;;;;4997760;28;20365;-22
2022/01/16 07:07:14;;;;;;;8.77;2.45;;;;;;;;;;4997210;28;20129;-22
2022/01/16 07:09:40;;;;;;;6.88;2.80;;;;;;;;;;4997549;28;20149;-22
2022/01/16 07:12:07;;;;;;;8.20;2.72;;;;;;;;;;4996672;28;20096;-22
2022/01/16 07:14:33;;;;;;;5.03;3.10;;;;;;;;;;4997717;28;20037;-22
2022/01/16 07:16:59;;;;;;;4.05;2.63;;;;;;;;;;4997454;28;20473;-22
2022/01/16 07:19:26;;;;;;;5.53;2.70;;;;;;;;;;4996422;28;20104;-23
2022/01/16 07:21:53;;;;;;;6.00;3.00;;;;;;;;;;4997196;28;20030;-22
2022/01/16 07:24:19;;;;;;;5.90;3.38;;;;;;;;;;4997298;28;20366;-22
2022/01/16 07:26:46;;;;;;;6.50;3.13;;;;;;;;;;4997385;28;20126;-22
2022/01/16 07:29:12;;;;;;;6.57;3.50;;;;;;;;;;4996500;28;20533;-23
2022/01/16 07:31:41;;;;;;;6.82;3.15;;;;;;;;;;4997130;28;20026;-22
2022/01/16 07:34:08;;;;;;;9.50;3.42;;;;;;;;;;4996002;28;20454;-22
2022/01/16 07:36:34;;;;;;;7.72;2.60;;;;;;;;;;4997176;28;20503;-22
2022/01/16 07:39:00;;;;;;;7.38;2.70;;;;;;;;;;4996337;28;20026;-24
2022/01/16 07:41:27;;;;;;;4.93;2.42;;;;;;;;;;4996914;28;20041;-25
2022/01/16 07:43:53;;;;;;;8.25;3.00;;;;;;;;;;4996887;28;20054;-22
2022/01/16 07:46:19;;;;;;;6.13;2.83;;;;;;;;;;4996971;28;20038;-23
2022/01/16 07:48:45;;;;;;;11.57;4.00;;;;;;;;;;4996640;28;20402;-22
2022/01/16 07:51:11;;;;;;;8.88;2.88;;;;;;;;;;4996887;28;20026;-22
2022/01/16 07:53:37;;;;;;;5.07;2.72;;;;;;;;;;4996440;28;20023;-22
2022/01/16 07:56:04;;;;;;;7.32;3.80;;;;;;;;;;4996424;28;20030;-22
2022/01/16 07:58:30;;;;;;;6.07;3.97;;;;;;;;;;4996557;28;20409;-21
2022/01/16 08:00:57;;;;;;;4.47;3.33;;;;;;;;;;4996667;28;20027;-23
2022/01/16 08:03:24;;;;;;;11.13;3.58;;;;;;;;;;4996224;28;20037;-22
2022/01/16 08:05:50;;;;;;;8.20;2.38;;;;;;;;;;4995881;28;20086;-24
2022/01/16 08:08:16;;;;;;;8.45;3.08;;;;;;;;;;4996629;28;20042;-22
2022/01/16 08:10:42;;;;;;;5.07;2.92;;;;;;;;;;4996371;28;20093;-23
2022/01/16 08:13:08;;;;;;;9.43;3.42;;;;;;;;;;4996291;28;20041;-23
2022/01/16 08:15:35;;;;;;;4.82;2.58;;;;;;;;;;4996352;28;20450;-22
2022/01/16 08:18:01;;;;;;;6.35;3.58;;;;;;;;;;4996248;28;20030;-22
2022/01/16 08:20:27;;;;;;;4.93;2.58;;;;;;;;;;4996174;28;20038;-22
2022/01/16 08:22:54;;;;;;;4.63;2.60;;;;;;;;;;4996029;28;20045;-22
2022/01/16 08:25:21;;;;;;;8.75;3.00;;;;;;;;;;4996024;28;20058;-22
2022/01/16 08:27:47;;;;;;;4.82;2.90;;;;;;;;;;4995973;28;20084;-23
2022/01/16 08:30:13;;;;;;;3.22;2.70;;;;;;;;;;4996073;28;20037;-22
2022/01/16 08:32:43;;;;;;;5.57;3.28;;;;;;;;;;4995792;28;20030;-22
2022/01/16 08:35:10;;;;;;;13.52;3.70;;;;;;;;;;4995922;28;20019;-25
2022/01/16 08:37:36;;;;;;;6.22;3.15;;;;;;;;;;4996184;28;20041;-21
2022/01/16 08:40:04;;;;;;;7.57;3.88;;;;;;;;;;4996240;28;20030;-22
2022/01/16 08:42:30;;;;;;;6.55;3.20;;;;;;;;;;4996058;28;20362;-22
2022/01/16 08:44:56;;;;;;;4.93;3.15;;;;;;;;;;4995907;28;20030;-22
2022/01/16 08:47:23;;;;;;;7.18;3.70;;;;;;;;;;4996215;28;20030;-22
2022/01/16 08:49:49;;;;;;;4.93;2.70;;;;;;;;;;4996036;28;20022;-22
2022/01/16 08:52:17;;;;;;;9.38;2.60;;;;;;;;;;4996230;28;20054;-22
2022/01/16 08:54:43;;;;;;;4.85;3.50;;;;;;;;;;4995652;28;20398;-23
2022/01/16 08:57:09;;;;;;;7.45;3.47;;;;;;;;;;4995664;28;20110;-26
2022/01/16 08:59:35;;;;;;;10.13;3.17;;;;;;;;;;4995581;28;20058;-22
2022/01/16 09:02:01;;;;;;;6.55;4.25;;;;;;;;;;4994435;28;20520;-23
2022/01/16 09:04:28;;;;;;;7.65;3.53;;;;;;;;;;4995752;28;20035;-22
2022/01/16 09:06:54;;;;;;;5.72;3.30;;;;;;;;;;4995242;28;20448;-22
2022/01/16 09:09:20;;;;;;;7.90;3.15;;;;;;;;;;4995450;28;20026;-22
2022/01/16 09:11:47;;;;;;;9.68;3.97;;;;;;;;;;4995357;28;20038;-25
2022/01/16 09:14:14;;;;;;;10.05;3.80;;;;;;;;;;4995288;28;20023;-22
2022/01/16 09:16:40;;;;;;;14.43;3.60;;;;;;;;;;4995083;28;20041;-22
2022/01/16 09:19:07;;;;;;;8.68;3.15;;;;;;;;;;4994916;28;20413;-22
2022/01/16 09:21:34;;;;;;;19.23;3.03;;;;;;;;;;4995365;28;20038;-24
2022/01/16 09:24:00;;;;;;;7.07;2.92;;;;;;;;;;4995200;28;20030;-23
2022/01/16 09:26:26;;;;;;;13.93;4.72;;;;;;;;;;4995277;28;20038;-22
2022/01/16 09:28:53;;;;;;;7.55;3.08;;;;;;;;;;4995312;28;20032;-23
2022/01/16 09:31:19;;;;;;;7.05;2.78;;;;;;;;;;4995511;28;20105;-22
2022/01/16 09:33:45;;;;;;;4.70;2.55;;;;;;;;;;4994897;28;20081;-21
2022/01/16 09:36:12;;;;;;;7.75;2.75;;;;;;;;;;4994957;28;20030;-22
2022/01/16 09:38:39;;;;;;;7.43;3.20;;;;;;;;;;4994945;28;20100;-22
2022/01/16 09:41:06;;;;;;;4.90;2.97;;;;;;;;;;4994838;28;20489;-22
2022/01/16 09:43:33;;;;;;;7.40;3.90;;;;;;;;;;4994994;28;20085;-22
2022/01/16 09:45:59;;;;;;;8.60;3.15;;;;;;;;;;4994981;28;20026;-22
2022/01/16 09:48:25;;;;;;;8.05;3.35;;;;;;;;;;4995126;28;20110;-22
2022/01/16 09:50:52;;;;;;;6.03;2.97;;;;;;;;;;4995097;28;20045;-22
2022/01/16 09:53:18;;;;;;;7.93;2.80;;;;;;;;;;4995113;28;20104;-22
2022/01/16 09:55:44;;;;;;;5.10;3.20;;;;;;;;;;4994824;28;20030;-22
2022/01/16 09:58:10;;;;;;;6.57;3.65;;;;;;;;;;4994747;28;20042;-22
2022/01/16 10:00:36;;;;;;;7.18;3.13;;;;;;;;;;4994778;28;20114;-23
2022/01/16 10:03:04;;;;;;;16.10;3.03;;;;;;;;;;4994719;28;20480;-22
2022/01/16 10:05:35;;;;;;;21.88;4.25;;;;;;;;;;4994708;28;20113;-22
2022/01/16 10:08:02;;;;;;;7.47;3.97;;;;;;;;;;4995295;28;20034;-24
2022/01/16 10:10:33;;;;;;;7.97;4.57;;;;;;;;;;4994654;28;20466;-22
2022/01/16 10:13:07;;;;;;;8.03;3.30;;;;;;;;;;4994921;28;20041;-26
2022/01/16 10:15:34;;;;;;;10.10;3.70;;;;;;;;;;4994906;28;20265;-22
2022/01/16 10:18:01;;;;;;;5.10;3.33;;;;;;;;;;4995097;28;20030;-22
2022/01/16 10:20:28;;;;;;;5.85;4.10;;;;;;;;;;4995081;28;20109;-23
2022/01/16 10:22:58;;;;;;;6.10;3.28;;;;;;;;;;4994291;28;20054;-22
2022/01/16 10:25:37;;;;;;;3.58;3.22;;;;;;;;;;4994723;28;20358;-23
2022/01/16 10:28:04;;;;;;;13.40;4.28;;;;;;;;;;4994303;28;20126;-22
2022/01/16 10:30:40;;;;;;;7.00;3.47;;;;;;;;;;4997925;28;20026;-22
2022/01/16 10:33:11;;;;;;;9.05;2.70;;;;;;;;;;4997991;28;20026;-22
2022/01/16 10:35:37;;;;;;;10.38;4.07;;;;;;;;;;4998232;28;20365;-22
2022/01/16 10:38:04;;;;;;;5.45;3.03;;;;;;;;;;4998001;28;20465;-22
2022/01/16 10:40:34;;;;;;;9.05;3.58;;;;;;;;;;4998134;28;20038;-22
2022/01/16 10:43:05;;;;;;;6.75;3.83;;;;;;;;;;4998091;28;20046;-22
2022/01/16 10:45:31;;;;;;;;;;;;;;;;;;4998364;28;20054;-22
2022/01/16 10:47:59;;;;;;;8.35;3.88;;;;;;;;;;4997646;28;19909;-22
2022/01/16 10:50:28;;;;;;;9.80;3.42;;;;;;;;;;4997723;28;20101;-22
2022/01/16 10:53:02;;;;;;;6.78;3.40;;;;;;;;;;4997757;28;20054;-22
2022/01/16 10:55:47;;;;;;;6.53;3.05;;;;;;;;;;4997682;28;20038;-22
2022/01/16 10:58:19;;;;;;;5.63;4.40;;;;;;;;;;4998346;28;20027;-22
2022/01/16 11:00:51;;;;;;;7.90;3.13;;;;;;;;;;4997895;28;20349;-23
2022/01/16 11:03:18;;;;;;;6.50;3.03;;;;;;;;;;4997701;28;20412;-22
2022/01/16 11:05:45;;;;;;;9.88;4.70;;;;;;;;;;4996434;28;20042;-22
2022/01/16 11:08:13;;;;;;;6.32;2.90;;;;;;;;;;4997351;28;20454;-23
2022/01/16 11:10:40;;;;;;;12.73;3.08;;;;;;;;;;4997599;28;20023;-22
2022/01/16 11:13:11;;;;;;;4.50;3.03;;;;;;;;;;4997343;28;20071;-22
2022/01/16 11:15:38;;;;;;;9.18;3.78;;;;;;;;;;4997563;28;20018;-22
2022/01/16 11:18:05;;;;;;;6.93;3.22;;;;;;;;;;4997544;28;20350;-23
2022/01/16 11:20:35;;;;;;;5.55;3.00;;;;;;;;;;4996363;28;20034;-23
2022/01/16 11:23:12;;;;;;;5.07;3.10;;;;;;;;;;4997379;28;20405;-23
2022/01/16 11:25:39;;;;;;;4.95;3.15;;;;;;;;;;4997396;28;20108;-23
2022/01/16 11:28:07;;;;;;;9.38;3.67;;;;;;;;;;4997244;28;20076;-22
2022/01/16 11:30:34;;;;;;;12.38;4.15;;;;;;;;;;4997216;28;20466;-23
2022/01/16 11:33:00;;;;;;;6.13;3.72;;;;;;;;;;4996895;28;20022;-22
2022/01/16 11:35:27;;;;;;;5.13;3.65;;;;;;;;;;4997578;28;20053;-23
2022/01/16 11:37:54;;;;;;;7.72;3.40;;;;;;;;;;4997079;28;20042;-22
2022/01/16 11:40:27;;;;;;;3.60;2.92;;;;;;;;;;4996277;28;20027;-22
2022/01/16 11:43:12;;;;;;;5.82;3.90;;;;;;;;;;4996942;28;20426;-23
2022/01/16 11:45:49;;;;;;;5.68;3.60;;;;;;;;;;4996976;28;20105;-22
2022/01/16 11:48:34;;;;;;;8.05;4.13;;;;;;;;;;4996870;28;20053;-23
2022/01/16 11:51:01;;;;;;;27.60;4.05;;;;;;;;;;4996834;28;20061;-22
2022/01/16 11:53:45;;;;;;;16.65;5.75;;;;;;;;;;4996370;28;20027;-26
2022/01/16 11:56:40;;;;;;;9.10;4.45;;;;;;;;;;4996504;28;20453;-22
2022/01/16 11:59:13;;;;;;;9.63;4.65;;;;;;;;;;4979927;28;20180;-23
2022/01/16 12:01:43;;;;;;;7.68;4.05;;;;;;;;;;4996739;28;20030;-23
2022/01/16 12:04:29;;;;;;;13.93;4.20;;;;;;;;;;4996420;28;20462;-24
2022/01/16 12:06:58;;;;;;;8.60;4.22;;;;;;;;;;4996200;28;20038;-22
2022/01/16 12:09:38;;;;;;;10.82;3.85;;;;;;;;;;4996344;28;20026;-22
2022/01/16 12:12:27;;;;;;;7.63;3.63;;;;;;;;;;4996578;28;20038;-23
2022/01/16 12:15:07;;;;;;;9.18;3.75;;;;;;;;;;4996188;28;20034;-23
2022/01/16 12:17:55;;;;;;;8.05;3.60;;;;;;;;;;4996121;28;20476;-22
2022/01/16 12:20:26;;;;;;;12.82;4.47;;;;;;;;;;4995819;28;20452;-22
2022/01/16 12:22:55;;;;;;;9.90;3.67;;;;;;;;;;4996405;28;20061;-23
2022/01/16 12:25:27;;;;;;;10.77;3.92;;;;;;;;;;4996342;28;20347;-23
2022/01/16 12:27:55;;;;;;;5.38;3.50;;;;;;;;;;4996317;28;20030;-22
2022/01/16 12:30:39;;;;;;;8.90;3.42;;;;;;;;;;4996268;28;20089;-22
2022/01/16 12:33:09;;;;;;;6.40;3.38;;;;;;;;;;4996100;28;20029;-22
2022/01/16 12:35:50;;;;;;;7.45;3.40;;;;;;;;;;4995953;28;20057;-22
2022/01/16 12:38:17;;;;;;;9.68;4.38;;;;;;;;;;4995927;28;20034;-22
2022/01/16 12:40:44;;;;;;;10.05;3.88;;;;;;;;;;4995854;28;20382;-23
2022/01/16 12:43:16;;;;;;;14.13;5.60;;;;;;;;;;4995948;28;20022;-22
2022/01/16 12:45:43;;;;;;;5.93;3.47;;;;;;;;;;4995703;28;20520;-23
2022/01/16 12:48:10;;;;;;;5.45;3.25;;;;;;;;;;4995694;28;20030;-23
2022/01/16 12:50:37;;;;;;;11.23;3.58;;;;;;;;;;4995634;28;20022;-22
2022/01/16 12:53:04;;;;;;;10.40;3.72;;;;;;;;;;4994879;28;20076;-22
2022/01/16 12:55:31;;;;;;;8.00;3.38;;;;;;;;;;4995728;28;20382;-22
2022/01/16 12:58:32;;;;;;;11.40;4.00;;;;;;;;;;4995731;28;20022;-22
2022/01/16 13:00:59;;;;;;;4.82;3.33;;;;;;;;;;4917024;29;20115;-23
2022/01/16 13:03:28;;;;;;;5.95;3.72;;;;;;;;;;4979677;28;20092;-22
2022/01/16 13:06:13;;;;;;;6.95;4.28;;;;;;;;;;4995002;28;20042;-24
2022/01/16 13:08:58;;;;;;;10.98;3.85;;;;;;;;;;4995634;28;20019;-22
2022/01/16 13:11:26;;;;;;;8.65;3.67;;;;;;;;;;4995748;28;20097;-22
2022/01/16 13:13:52;;;;;;;8.23;4.15;;;;;;;;;;4995117;28;20027;-22
2022/01/16 13:16:19;;;;;;;9.27;4.30;;;;;;;;;;4995150;28;20109;-23
2022/01/16 13:19:04;;;;;;;6.88;3.70;;;;;;;;;;4995122;28;20034;-22
2022/01/16 13:21:39;;;;;;;7.50;4.00;;;;;;;;;;4995181;28;20022;-22
2022/01/16 13:24:06;;;;;;;11.80;4.18;;;;;;;;;;4995321;28;20405;-22
2022/01/16 13:26:34;;;;;;;8.55;3.60;;;;;;;;;;4995492;28;20354;-24
2022/01/16 13:29:04;;;;;;;11.80;4.30;;;;;;;;;;4994967;28;20036;-22
2022/01/16 13:31:31;;;;;;;8.10;4.10;;;;;;;;;;4995234;28;20034;-22
2022/01/16 13:34:07;;;;;;;5.82;4.05;;;;;;;;;;4995012;28;20036;-22
2022/01/16 13:36:33;;;;;;;5.32;3.15;;;;;;;;;;4995288;28;20110;-25
2022/01/16 13:38:59;;;;;;;8.88;3.78;;;;;;;;;;4995067;28;20121;-23
2022/01/16 13:41:25;;;;;;;7.47;4.57;;;;;;;;;;4994940;28;20064;-23
2022/01/16 13:43:51;;;;;;;9.07;4.57;;;;;;;;;;4995149;28;20034;-23
2022/01/16 13:46:18;;;;;;;5.07;3.65;;;;;;;;;;4994845;28;20390;-22
2022/01/16 13:48:44;;;;;;;6.25;4.20;;;;;;;;;;4994872;28;20026;-23
2022/01/16 13:51:10;;;;;;;12.90;4.35;;;;;;;;;;4994870;28;20513;-22
2022/01/16 13:53:44;;;;;;;6.72;3.92;;;;;;;;;;4994850;28;20065;-23
2022/01/16 13:56:16;;;;;;;4.90;3.80;;;;;;;;;;4995180;28;20105;-23
2022/01/16 13:58:44;;;;;;;6.57;3.58;;;;;;;;;;4995210;28;20022;-22
2022/01/16 14:01:14;;;;;;;5.32;3.85;;;;;;;;;;4994875;28;20034;-22
2022/01/16 14:03:50;;;;;;;8.53;4.23;;;;;;;;;;4995685;28;20026;-22
2022/01/16 14:06:17;;;;;;;5.57;3.90;;;;;;;;;;4998526;28;20046;-20
2022/01/16 14:08:53;;;;;;;7.68;3.42;;;;;;;;;;4998719;28;20358;-20
2022/01/16 14:11:23;;;;;;;7.50;3.70;;;;;;;;;;4998662;28;20023;-20
2022/01/16 14:13:57;;;;;;;6.28;4.10;;;;;;;;;;4998699;28;20049;-22
2022/01/16 14:16:36;;;;;;;8.18;4.22;;;;;;;;;;4998907;28;20349;-20
2022/01/16 14:24:10;;;;;;;6.53;3.80;;;;;;;;;;4998473;28;20437;-20
2022/01/16 14:26:49;;;;;;;7.90;3.60;;;;;;;;;;4997494;28;20058;-21
2022/01/16 14:29:15;;;;;;;5.43;3.92;;;;;;;;;;4998366;28;20033;-20
2022/01/16 14:31:42;;;;;;;8.40;3.83;;;;;;;;;;4998282;28;20096;-20
2022/01/16 14:34:11;;;;;;;6.80;3.83;;;;;;;;;;4998452;28;20027;-20
2022/01/16 14:36:37;;;;;;;7.40;3.88;;;;;;;;;;4998236;28;20026;-21
2022/01/16 14:39:04;;;;;;;4.10;3.70;;;;;;;;;;4998438;28;20081;-20
2022/01/16 14:41:33;;;;;;;12.63;3.58;;;;;;;;;;4998175;28;20053;-21
2022/01/16 14:44:00;;;;;;;6.07;4.60;;;;;;;;;;4998039;28;20066;-20
2022/01/16 14:46:28;;;;;;;5.82;4.22;;;;;;;;;;4998271;28;20057;-20
2022/01/16 14:48:55;;;;;;;4.57;3.92;;;;;;;;;;4998245;28;20026;-20
2022/01/16 14:51:21;;;;;;;4.50;3.92;;;;;;;;;;4998518;28;20081;-20
2022/01/16 14:53:47;;;;;;;6.28;4.03;;;;;;;;;;4998149;28;20082;-20
2022/01/16 14:56:14;;;;;;;5.45;3.80;;;;;;;;;;4998392;28;20026;-20
2022/01/16 14:58:41;;;;;;;7.97;4.50;;;;;;;;;;4998396;28;20026;-20
2022/01/16 15:01:08;;;;;;;6.50;3.65;;;;;;;;;;4998132;28;20045;-20
2022/01/16 15:03:35;;;;;;;6.45;3.95;;;;;;;;;;4997957;28;20353;-20
2022/01/16 15:06:06;;;;;;;5.70;4.00;;;;;;;;;;4997658;28;20078;-20
2022/01/16 15:08:34;;;;;;;3.80;3.40;;;;;;;;;;4997990;28;20050;-22
2022/01/16 15:11:00;;;;;;;5.03;4.07;;;;;;;;;;4997554;28;20034;-20
2022/01/16 15:13:26;;;;;;;9.05;4.45;;;;;;;;;;4997546;28;20057;-20
2022/01/16 15:15:52;;;;;;;9.75;4.65;;;;;;;;;;4996874;28;20034;-20
2022/01/16 15:18:20;;;;;;;4.32;3.45;;;;;;;;;;4997444;28;20497;-20
2022/01/16 15:20:50;;;;;;;5.88;3.95;;;;;;;;;;4997532;28;20030;-21
2022/01/16 15:23:16;;;;;;;5.15;3.72;;;;;;;;;;4997599;28;20031;-20
2022/01/16 15:25:44;;;;;;;5.10;3.72;;;;;;;;;;4997528;28;20350;-20
2022/01/16 15:28:10;;;;;;;6.18;4.10;;;;;;;;;;4997373;28;20027;-20
2022/01/16 15:30:37;;;;;;;7.22;3.95;;;;;;;;;;4997792;28;20100;-21